sensor_id;sensor_type;location;lat;lon;timestamp;P1;durP1;ratioP1;P2;durP2;ratioP2
74369;SDS011;62805;44.644;10.942;2022-12-04T00:00:10;36.08;;;17.35;;
74369;SDS011;62805;44.644;10.942;2022-12-04T00:02:37;43.60;;;19.92;;
74369;SDS011;62805;44.644;10.942;2022-12-04T00:05:03;39.90;;;17.67;;
74369;SDS011;62805;44.644;10.942;2022-12-04T00:07:30;41.22;;;17.58;;
74369;SDS011;62805;44.644;10.942;2022-12-04T00:09:55;48.78;;;20.38;;
74369;SDS011;62805;44.644;10.942;2022-12-04T00:12:20;42.23;;;19.43;;
74369;SDS011;62805;44.644;10.942;2022-12-04T00:14:46;43.15;;;19.30;;
74369;SDS011;62805;44.644;10.942;2022-12-04T00:17:12;35.97;;;16.85;;
74369;SDS011;62805;44.644;10.942;2022-12-04T00:19:37;36.65;;;17.38;;
74369;SDS011;62805;44.644;10.942;2022-12-04T00:22:03;36.58;;;16.80;;
74369;SDS011;62805;44.644;10.942;2022-12-04T00:24:28;35.25;;;16.52;;
74369;SDS011;62805;44.644;10.942;2022-12-04T00:26:54;38.05;;;16.88;;
74369;SDS011;62805;44.644;10.942;2022-12-04T00:29:19;38.03;;;17.60;;
74369;SDS011;62805;44.644;10.942;2022-12-04T00:31:45;36.90;;;17.02;;
74369;SDS011;62805;44.644;10.942;2022-12-04T00:34:10;37.08;;;16.15;;
74369;SDS011;62805;44.644;10.942;2022-12-04T00:36:36;34.25;;;16.48;;
74369;SDS011;62805;44.644;10.942;2022-12-04T00:39:01;33.08;;;15.95;;
74369;SDS011;62805;44.644;10.942;2022-12-04T00:41:28;33.95;;;16.27;;
74369;SDS011;62805;44.644;10.942;2022-12-04T00:43:54;31.88;;;17.25;;
74369;SDS011;62805;44.644;10.942;2022-12-04T00:46:20;35.83;;;16.10;;
74369;SDS011;62805;44.644;10.942;2022-12-04T00:48:46;35.50;;;16.92;;
74369;SDS011;62805;44.644;10.942;2022-12-04T00:51:13;37.05;;;18.48;;
74369;SDS011;62805;44.644;10.942;2022-12-04T00:53:41;35.38;;;16.98;;
74369;SDS011;62805;44.644;10.942;2022-12-04T00:56:08;37.58;;;16.42;;
74369;SDS011;62805;44.644;10.942;2022-12-04T00:58:35;35.50;;;17.13;;
74369;SDS011;62805;44.644;10.942;2022-12-04T01:01:01;39.47;;;18.02;;
74369;SDS011;62805;44.644;10.942;2022-12-04T01:03:29;39.20;;;19.60;;
74369;SDS011;62805;44.644;10.942;2022-12-04T01:05:54;42.85;;;17.65;;
74369;SDS011;62805;44.644;10.942;2022-12-04T01:08:19;32.80;;;16.13;;
74369;SDS011;62805;44.644;10.942;2022-12-04T01:10:45;31.50;;;15.85;;
74369;SDS011;62805;44.644;10.942;2022-12-04T01:13:11;34.88;;;15.95;;
74369;SDS011;62805;44.644;10.942;2022-12-04T01:15:39;37.08;;;17.35;;
74369;SDS011;62805;44.644;10.942;2022-12-04T01:18:07;31.35;;;15.38;;
74369;SDS011;62805;44.644;10.942;2022-12-04T01:20:33;29.95;;;16.05;;
74369;SDS011;62805;44.644;10.942;2022-12-04T01:22:58;31.77;;;16.65;;
74369;SDS011;62805;44.644;10.942;2022-12-04T01:25:24;30.65;;;14.68;;
74369;SDS011;62805;44.644;10.942;2022-12-04T01:27:50;25.27;;;14.95;;
74369;SDS011;62805;44.644;10.942;2022-12-04T01:30:16;30.08;;;14.63;;
74369;SDS011;62805;44.644;10.942;2022-12-04T01:32:41;29.33;;;15.18;;
74369;SDS011;62805;44.644;10.942;2022-12-04T01:35:07;30.83;;;15.15;;
74369;SDS011;62805;44.644;10.942;2022-12-04T01:37:32;33.00;;;15.63;;
74369;SDS011;62805;44.644;10.942;2022-12-04T01:39:58;28.65;;;15.43;;
74369;SDS011;62805;44.644;10.942;2022-12-04T01:42:25;30.33;;;15.57;;
74369;SDS011;62805;44.644;10.942;2022-12-04T01:47:52;27.30;;;13.85;;
74369;SDS011;62805;44.644;10.942;2022-12-04T01:50:18;29.17;;;14.45;;
74369;SDS011;62805;44.644;10.942;2022-12-04T01:52:44;28.05;;;14.00;;
74369;SDS011;62805;44.644;10.942;2022-12-04T01:55:09;21.50;;;11.57;;
74369;SDS011;62805;44.644;10.942;2022-12-04T01:57:34;24.05;;;13.60;;
74369;SDS011;62805;44.644;10.942;2022-12-04T02:00:04;23.90;;;12.68;;
74369;SDS011;62805;44.644;10.942;2022-12-04T02:02:33;22.50;;;12.38;;
74369;SDS011;62805;44.644;10.942;2022-12-04T02:12:41;20.83;;;11.55;;
74369;SDS011;62805;44.644;10.942;2022-12-04T02:15:26;23.35;;;12.40;;
74369;SDS011;62805;44.644;10.942;2022-12-04T02:20:47;22.50;;;14.13;;
74369;SDS011;62805;44.644;10.942;2022-12-04T02:32:18;19.98;;;12.65;;
74369;SDS011;62805;44.644;10.942;2022-12-04T02:34:53;20.77;;;12.93;;
74369;SDS011;62805;44.644;10.942;2022-12-04T02:37:29;23.40;;;13.65;;
74369;SDS011;62805;44.644;10.942;2022-12-04T02:45:07;22.50;;;14.18;;
74369;SDS011;62805;44.644;10.942;2022-12-04T02:47:36;20.48;;;12.90;;
74369;SDS011;62805;44.644;10.942;2022-12-04T02:50:05;21.10;;;11.20;;
74369;SDS011;62805;44.644;10.942;2022-12-04T02:52:45;21.67;;;12.18;;
74369;SDS011;62805;44.644;10.942;2022-12-04T02:55:23;19.23;;;11.60;;
74369;SDS011;62805;44.644;10.942;2022-12-04T02:57:55;19.65;;;10.75;;
74369;SDS011;62805;44.644;10.942;2022-12-04T03:00:29;19.67;;;10.88;;
74369;SDS011;62805;44.644;10.942;2022-12-04T03:03:04;14.77;;;8.70;;
74369;SDS011;62805;44.644;10.942;2022-12-04T03:05:39;16.95;;;10.52;;
74369;SDS011;62805;44.644;10.942;2022-12-04T03:08:16;19.33;;;11.68;;
74369;SDS011;62805;44.644;10.942;2022-12-04T03:10:48;21.63;;;13.73;;
74369;SDS011;62805;44.644;10.942;2022-12-04T03:13:23;16.98;;;9.88;;
74369;SDS011;62805;44.644;10.942;2022-12-04T03:16:15;15.75;;;8.00;;
74369;SDS011;62805;44.644;10.942;2022-12-04T03:21:10;20.25;;;10.80;;
74369;SDS011;62805;44.644;10.942;2022-12-04T03:23:58;19.60;;;10.05;;
74369;SDS011;62805;44.644;10.942;2022-12-04T03:26:33;23.15;;;11.57;;
74369;SDS011;62805;44.644;10.942;2022-12-04T03:29:11;20.08;;;10.90;;
74369;SDS011;62805;44.644;10.942;2022-12-04T03:31:55;19.85;;;10.18;;
74369;SDS011;62805;44.644;10.942;2022-12-04T03:34:34;24.10;;;13.18;;
74369;SDS011;62805;44.644;10.942;2022-12-04T03:37:06;21.98;;;11.35;;
74369;SDS011;62805;44.644;10.942;2022-12-04T03:39:37;23.70;;;12.68;;
74369;SDS011;62805;44.644;10.942;2022-12-04T03:42:55;23.67;;;14.18;;
74369;SDS011;62805;44.644;10.942;2022-12-04T03:45:38;21.02;;;14.20;;
74369;SDS011;62805;44.644;10.942;2022-12-04T03:48:15;20.05;;;11.10;;
74369;SDS011;62805;44.644;10.942;2022-12-04T03:54:03;16.65;;;11.70;;
74369;SDS011;62805;44.644;10.942;2022-12-04T03:56:34;19.05;;;10.82;;
74369;SDS011;62805;44.644;10.942;2022-12-04T03:59:05;17.50;;;10.07;;
74369;SDS011;62805;44.644;10.942;2022-12-04T04:01:35;16.63;;;10.10;;
74369;SDS011;62805;44.644;10.942;2022-12-04T04:04:04;17.80;;;9.85;;
74369;SDS011;62805;44.644;10.942;2022-12-04T04:06:33;16.17;;;9.43;;
74369;SDS011;62805;44.644;10.942;2022-12-04T04:09:04;16.52;;;9.90;;
74369;SDS011;62805;44.644;10.942;2022-12-04T04:11:34;14.43;;;10.40;;
74369;SDS011;62805;44.644;10.942;2022-12-04T04:14:06;16.10;;;10.15;;
74369;SDS011;62805;44.644;10.942;2022-12-04T04:16:57;14.20;;;10.80;;
74369;SDS011;62805;44.644;10.942;2022-12-04T04:19:43;18.13;;;11.30;;
74369;SDS011;62805;44.644;10.942;2022-12-04T04:22:28;12.20;;;10.75;;
74369;SDS011;62805;44.644;10.942;2022-12-04T04:25:33;15.82;;;11.27;;
74369;SDS011;62805;44.644;10.942;2022-12-04T04:28:02;12.02;;;7.85;;
74369;SDS011;62805;44.644;10.942;2022-12-04T04:30:27;10.55;;;7.88;;
74369;SDS011;62805;44.644;10.942;2022-12-04T04:33:08;10.68;;;7.85;;
74369;SDS011;62805;44.644;10.942;2022-12-04T04:35:43;10.90;;;7.82;;
74369;SDS011;62805;44.644;10.942;2022-12-04T04:38:20;10.68;;;7.85;;
74369;SDS011;62805;44.644;10.942;2022-12-04T04:40:55;8.70;;;6.65;;
74369;SDS011;62805;44.644;10.942;2022-12-04T04:43:36;9.43;;;7.78;;
74369;SDS011;62805;44.644;10.942;2022-12-04T04:46:07;11.63;;;8.07;;
74369;SDS011;62805;44.644;10.942;2022-12-04T04:48:40;10.90;;;8.18;;
74369;SDS011;62805;44.644;10.942;2022-12-04T04:51:08;12.63;;;8.85;;
74369;SDS011;62805;44.644;10.942;2022-12-04T04:53:35;13.35;;;8.98;;
74369;SDS011;62805;44.644;10.942;2022-12-04T04:56:03;14.52;;;10.48;;
74369;SDS011;62805;44.644;10.942;2022-12-04T05:03:23;12.07;;;6.75;;
74369;SDS011;62805;44.644;10.942;2022-12-04T05:05:49;11.95;;;7.70;;
74369;SDS011;62805;44.644;10.942;2022-12-04T05:08:15;11.30;;;6.45;;
74369;SDS011;62805;44.644;10.942;2022-12-04T05:10:40;11.05;;;7.35;;
74369;SDS011;62805;44.644;10.942;2022-12-04T05:13:06;9.55;;;6.53;;
74369;SDS011;62805;44.644;10.942;2022-12-04T05:15:31;8.65;;;5.35;;
74369;SDS011;62805;44.644;10.942;2022-12-04T05:17:57;9.48;;;6.32;;
74369;SDS011;62805;44.644;10.942;2022-12-04T05:20:22;11.98;;;7.70;;
74369;SDS011;62805;44.644;10.942;2022-12-04T05:22:47;9.93;;;6.60;;
74369;SDS011;62805;44.644;10.942;2022-12-04T05:25:13;11.23;;;6.82;;
74369;SDS011;62805;44.644;10.942;2022-12-04T05:27:38;10.60;;;6.07;;
74369;SDS011;62805;44.644;10.942;2022-12-04T05:30:04;12.48;;;7.88;;
74369;SDS011;62805;44.644;10.942;2022-12-04T05:32:30;10.18;;;6.72;;
74369;SDS011;62805;44.644;10.942;2022-12-04T05:34:56;6.03;;;4.25;;
74369;SDS011;62805;44.644;10.942;2022-12-04T05:37:22;10.10;;;6.60;;
74369;SDS011;62805;44.644;10.942;2022-12-04T05:39:48;11.88;;;7.50;;
74369;SDS011;62805;44.644;10.942;2022-12-04T05:42:13;11.23;;;7.47;;
74369;SDS011;62805;44.644;10.942;2022-12-04T05:44:39;10.05;;;5.93;;
74369;SDS011;62805;44.644;10.942;2022-12-04T05:47:05;14.18;;;7.55;;
74369;SDS011;62805;44.644;10.942;2022-12-04T05:49:31;6.13;;;3.85;;
74369;SDS011;62805;44.644;10.942;2022-12-04T05:51:57;12.27;;;8.27;;
74369;SDS011;62805;44.644;10.942;2022-12-04T05:54:23;12.02;;;7.65;;
74369;SDS011;62805;44.644;10.942;2022-12-04T05:56:49;12.82;;;7.78;;
74369;SDS011;62805;44.644;10.942;2022-12-04T05:59:14;9.75;;;5.78;;
74369;SDS011;62805;44.644;10.942;2022-12-04T06:01:40;13.23;;;8.10;;
74369;SDS011;62805;44.644;10.942;2022-12-04T06:04:06;13.77;;;8.88;;
74369;SDS011;62805;44.644;10.942;2022-12-04T06:06:31;14.35;;;8.77;;
74369;SDS011;62805;44.644;10.942;2022-12-04T06:08:57;13.30;;;7.97;;
74369;SDS011;62805;44.644;10.942;2022-12-04T06:11:25;14.55;;;9.35;;
74369;SDS011;62805;44.644;10.942;2022-12-04T06:13:51;14.80;;;9.55;;
74369;SDS011;62805;44.644;10.942;2022-12-04T06:19:06;13.18;;;7.97;;
74369;SDS011;62805;44.644;10.942;2022-12-04T06:21:34;15.60;;;8.50;;
74369;SDS011;62805;44.644;10.942;2022-12-04T06:24:00;11.80;;;7.35;;
74369;SDS011;62805;44.644;10.942;2022-12-04T06:26:26;13.13;;;8.00;;
74369;SDS011;62805;44.644;10.942;2022-12-04T06:28:52;13.82;;;8.27;;
74369;SDS011;62805;44.644;10.942;2022-12-04T06:31:18;13.73;;;8.55;;
74369;SDS011;62805;44.644;10.942;2022-12-04T06:33:44;15.68;;;9.65;;
74369;SDS011;62805;44.644;10.942;2022-12-04T06:36:11;14.75;;;8.88;;
74369;SDS011;62805;44.644;10.942;2022-12-04T06:38:38;13.90;;;8.73;;
74369;SDS011;62805;44.644;10.942;2022-12-04T06:41:04;16.67;;;10.70;;
74369;SDS011;62805;44.644;10.942;2022-12-04T06:43:31;15.48;;;8.70;;
74369;SDS011;62805;44.644;10.942;2022-12-04T06:46:05;19.50;;;9.50;;
74369;SDS011;62805;44.644;10.942;2022-12-04T06:48:31;18.02;;;10.40;;
74369;SDS011;62805;44.644;10.942;2022-12-04T06:51:01;13.07;;;8.00;;
74369;SDS011;62805;44.644;10.942;2022-12-04T06:53:34;16.52;;;10.25;;
74369;SDS011;62805;44.644;10.942;2022-12-04T06:56:00;15.30;;;10.07;;
74369;SDS011;62805;44.644;10.942;2022-12-04T06:58:28;14.57;;;8.18;;
74369;SDS011;62805;44.644;10.942;2022-12-04T07:00:54;15.38;;;9.32;;
74369;SDS011;62805;44.644;10.942;2022-12-04T07:03:20;14.05;;;8.50;;
74369;SDS011;62805;44.644;10.942;2022-12-04T07:05:46;12.18;;;6.82;;
74369;SDS011;62805;44.644;10.942;2022-12-04T07:08:11;17.75;;;10.48;;
74369;SDS011;62805;44.644;10.942;2022-12-04T07:10:37;15.48;;;9.57;;
74369;SDS011;62805;44.644;10.942;2022-12-04T07:13:03;13.57;;;8.10;;
74369;SDS011;62805;44.644;10.942;2022-12-04T07:15:29;16.38;;;10.90;;
74369;SDS011;62805;44.644;10.942;2022-12-04T07:17:57;15.20;;;9.60;;
74369;SDS011;62805;44.644;10.942;2022-12-04T07:20:22;18.60;;;12.70;;
74369;SDS011;62805;44.644;10.942;2022-12-04T07:22:48;16.60;;;10.95;;
74369;SDS011;62805;44.644;10.942;2022-12-04T07:25:14;16.98;;;10.48;;
74369;SDS011;62805;44.644;10.942;2022-12-04T07:27:40;16.73;;;9.88;;
74369;SDS011;62805;44.644;10.942;2022-12-04T07:30:05;15.80;;;10.55;;
74369;SDS011;62805;44.644;10.942;2022-12-04T07:32:31;13.98;;;8.43;;
74369;SDS011;62805;44.644;10.942;2022-12-04T07:34:56;16.90;;;10.85;;
74369;SDS011;62805;44.644;10.942;2022-12-04T07:37:22;16.50;;;11.35;;
74369;SDS011;62805;44.644;10.942;2022-12-04T07:39:49;15.35;;;9.38;;
74369;SDS011;62805;44.644;10.942;2022-12-04T07:42:15;15.55;;;9.52;;
74369;SDS011;62805;44.644;10.942;2022-12-04T07:44:41;16.20;;;10.02;;
74369;SDS011;62805;44.644;10.942;2022-12-04T07:47:06;16.52;;;10.27;;
74369;SDS011;62805;44.644;10.942;2022-12-04T07:49:32;18.23;;;12.25;;
74369;SDS011;62805;44.644;10.942;2022-12-04T07:51:57;10.63;;;4.75;;
74369;SDS011;62805;44.644;10.942;2022-12-04T07:54:23;15.60;;;9.48;;
74369;SDS011;62805;44.644;10.942;2022-12-04T07:56:48;16.05;;;10.38;;
74369;SDS011;62805;44.644;10.942;2022-12-04T07:59:14;14.45;;;9.50;;
74369;SDS011;62805;44.644;10.942;2022-12-04T08:01:39;16.52;;;10.98;;
74369;SDS011;62805;44.644;10.942;2022-12-04T08:04:05;16.83;;;10.98;;
74369;SDS011;62805;44.644;10.942;2022-12-04T08:06:31;15.82;;;9.48;;
74369;SDS011;62805;44.644;10.942;2022-12-04T08:08:59;16.52;;;10.05;;
74369;SDS011;62805;44.644;10.942;2022-12-04T08:11:25;16.25;;;10.10;;
74369;SDS011;62805;44.644;10.942;2022-12-04T08:13:55;14.85;;;9.05;;
74369;SDS011;62805;44.644;10.942;2022-12-04T08:16:31;14.00;;;8.43;;
74369;SDS011;62805;44.644;10.942;2022-12-04T08:18:58;16.10;;;9.50;;
74369;SDS011;62805;44.644;10.942;2022-12-04T08:21:25;13.25;;;7.70;;
74369;SDS011;62805;44.644;10.942;2022-12-04T08:23:52;16.00;;;10.48;;
74369;SDS011;62805;44.644;10.942;2022-12-04T08:26:20;15.73;;;9.52;;
74369;SDS011;62805;44.644;10.942;2022-12-04T08:28:47;16.58;;;10.07;;
74369;SDS011;62805;44.644;10.942;2022-12-04T08:31:17;14.57;;;8.82;;
74369;SDS011;62805;44.644;10.942;2022-12-04T08:33:44;14.25;;;10.32;;
74369;SDS011;62805;44.644;10.942;2022-12-04T08:36:12;14.20;;;9.75;;
74369;SDS011;62805;44.644;10.942;2022-12-04T08:38:38;14.23;;;8.85;;
74369;SDS011;62805;44.644;10.942;2022-12-04T08:41:05;13.85;;;9.55;;
74369;SDS011;62805;44.644;10.942;2022-12-04T08:43:32;13.20;;;7.72;;
74369;SDS011;62805;44.644;10.942;2022-12-04T08:45:59;11.63;;;6.95;;
74369;SDS011;62805;44.644;10.942;2022-12-04T08:53:16;9.60;;;5.80;;
74369;SDS011;62805;44.644;10.942;2022-12-04T08:55:42;14.48;;;9.57;;
74369;SDS011;62805;44.644;10.942;2022-12-04T08:58:08;14.65;;;9.60;;
74369;SDS011;62805;44.644;10.942;2022-12-04T09:00:33;13.18;;;8.45;;
74369;SDS011;62805;44.644;10.942;2022-12-04T09:02:59;14.65;;;9.98;;
74369;SDS011;62805;44.644;10.942;2022-12-04T09:05:24;16.80;;;10.80;;
74369;SDS011;62805;44.644;10.942;2022-12-04T09:07:49;17.23;;;10.35;;
74369;SDS011;62805;44.644;10.942;2022-12-04T09:10:15;18.35;;;10.75;;
74369;SDS011;62805;44.644;10.942;2022-12-04T09:12:41;15.38;;;10.18;;
74369;SDS011;62805;44.644;10.942;2022-12-04T09:15:08;17.50;;;10.73;;
74369;SDS011;62805;44.644;10.942;2022-12-04T09:17:34;14.45;;;10.98;;
74369;SDS011;62805;44.644;10.942;2022-12-04T09:20:03;14.20;;;8.95;;
74369;SDS011;62805;44.644;10.942;2022-12-04T09:22:29;12.75;;;8.52;;
74369;SDS011;62805;44.644;10.942;2022-12-04T09:24:55;13.90;;;9.70;;
74369;SDS011;62805;44.644;10.942;2022-12-04T09:27:21;13.77;;;10.15;;
74369;SDS011;62805;44.644;10.942;2022-12-04T09:29:46;10.95;;;7.28;;
74369;SDS011;62805;44.644;10.942;2022-12-04T09:32:11;11.27;;;7.55;;
74369;SDS011;62805;44.644;10.942;2022-12-04T09:34:37;7.55;;;4.95;;
74369;SDS011;62805;44.644;10.942;2022-12-04T09:37:03;10.93;;;7.20;;
74369;SDS011;62805;44.644;10.942;2022-12-04T09:39:28;9.73;;;6.30;;
74369;SDS011;62805;44.644;10.942;2022-12-04T09:44:27;9.07;;;5.63;;
74369;SDS011;62805;44.644;10.942;2022-12-04T09:49:22;10.13;;;6.50;;
74369;SDS011;62805;44.644;10.942;2022-12-04T09:51:51;7.65;;;5.13;;
74369;SDS011;62805;44.644;10.942;2022-12-04T09:54:19;8.48;;;5.38;;
74369;SDS011;62805;44.644;10.942;2022-12-04T09:56:52;6.13;;;4.43;;
74369;SDS011;62805;44.644;10.942;2022-12-04T09:59:23;5.97;;;4.72;;
74369;SDS011;62805;44.644;10.942;2022-12-04T10:02:36;6.38;;;4.32;;
74369;SDS011;62805;44.644;10.942;2022-12-04T10:21:29;2.97;;;2.13;;
74369;SDS011;62805;44.644;10.942;2022-12-04T10:26:45;2.72;;;2.05;;
74369;SDS011;62805;44.644;10.942;2022-12-04T10:29:29;3.58;;;2.30;;
74369;SDS011;62805;44.644;10.942;2022-12-04T10:32:41;3.15;;;2.53;;
74369;SDS011;62805;44.644;10.942;2022-12-04T10:34:51;3.40;;;2.08;;
74369;SDS011;62805;44.644;10.942;2022-12-04T10:37:18;3.25;;;1.88;;
74369;SDS011;62805;44.644;10.942;2022-12-04T10:39:54;4.97;;;1.95;;
74369;SDS011;62805;44.644;10.942;2022-12-04T10:42:30;3.20;;;2.15;;
74369;SDS011;62805;44.644;10.942;2022-12-04T10:45:00;2.60;;;1.90;;
74369;SDS011;62805;44.644;10.942;2022-12-04T10:47:26;2.55;;;1.67;;
74369;SDS011;62805;44.644;10.942;2022-12-04T10:51:17;2.70;;;1.80;;
74369;SDS011;62805;44.644;10.942;2022-12-04T10:53:47;2.47;;;1.75;;
74369;SDS011;62805;44.644;10.942;2022-12-04T10:56:17;2.60;;;1.80;;
74369;SDS011;62805;44.644;10.942;2022-12-04T10:58:56;2.70;;;1.90;;
74369;SDS011;62805;44.644;10.942;2022-12-04T11:01:23;2.78;;;2.03;;
74369;SDS011;62805;44.644;10.942;2022-12-04T11:03:54;3.25;;;1.88;;
74369;SDS011;62805;44.644;10.942;2022-12-04T11:06:25;2.60;;;1.98;;
74369;SDS011;62805;44.644;10.942;2022-12-04T11:08:51;2.60;;;1.80;;
74369;SDS011;62805;44.644;10.942;2022-12-04T11:14:13;3.85;;;2.00;;
74369;SDS011;62805;44.644;10.942;2022-12-04T11:16:42;3.53;;;2.03;;
74369;SDS011;62805;44.644;10.942;2022-12-04T11:21:47;4.65;;;2.97;;
74369;SDS011;62805;44.644;10.942;2022-12-04T11:24:16;3.42;;;2.10;;
74369;SDS011;62805;44.644;10.942;2022-12-04T11:26:45;3.13;;;2.13;;
74369;SDS011;62805;44.644;10.942;2022-12-04T11:29:12;5.28;;;2.13;;
74369;SDS011;62805;44.644;10.942;2022-12-04T11:31:40;3.28;;;2.17;;
74369;SDS011;62805;44.644;10.942;2022-12-04T11:34:06;2.83;;;2.10;;
74369;SDS011;62805;44.644;10.942;2022-12-04T11:39:03;3.45;;;2.03;;
74369;SDS011;62805;44.644;10.942;2022-12-04T11:41:31;3.53;;;2.42;;
74369;SDS011;62805;44.644;10.942;2022-12-04T11:43:58;3.95;;;1.95;;
74369;SDS011;62805;44.644;10.942;2022-12-04T11:46:25;3.78;;;1.90;;
74369;SDS011;62805;44.644;10.942;2022-12-04T11:48:51;3.10;;;2.08;;
74369;SDS011;62805;44.644;10.942;2022-12-04T11:56:39;3.13;;;2.00;;
74369;SDS011;62805;44.644;10.942;2022-12-04T12:07:41;3.55;;;2.03;;
74369;SDS011;62805;44.644;10.942;2022-12-04T12:26:23;4.57;;;2.60;;
74369;SDS011;62805;44.644;10.942;2022-12-04T12:34:02;4.50;;;2.50;;
74369;SDS011;62805;44.644;10.942;2022-12-04T12:36:35;3.40;;;2.28;;
74369;SDS011;62805;44.644;10.942;2022-12-04T12:39:12;4.38;;;2.97;;
74369;SDS011;62805;44.644;10.942;2022-12-04T12:41:51;4.57;;;2.70;;
74369;SDS011;62805;44.644;10.942;2022-12-04T12:44:41;4.60;;;2.45;;
74369;SDS011;62805;44.644;10.942;2022-12-04T12:47:14;4.38;;;2.40;;
74369;SDS011;62805;44.644;10.942;2022-12-04T12:55:12;3.10;;;1.98;;
74369;SDS011;62805;44.644;10.942;2022-12-04T12:57:41;4.03;;;2.50;;
74369;SDS011;62805;44.644;10.942;2022-12-04T13:05:50;4.15;;;2.30;;
74369;SDS011;62805;44.644;10.942;2022-12-04T13:08:16;3.30;;;2.05;;
74369;SDS011;62805;44.644;10.942;2022-12-04T13:11:00;4.32;;;2.05;;
74369;SDS011;62805;44.644;10.942;2022-12-04T13:13:44;3.20;;;2.13;;
74369;SDS011;62805;44.644;10.942;2022-12-04T13:18:58;3.88;;;2.63;;
74369;SDS011;62805;44.644;10.942;2022-12-04T13:21:32;3.03;;;2.42;;
74369;SDS011;62805;44.644;10.942;2022-12-04T13:27:09;3.60;;;2.42;;
74369;SDS011;62805;44.644;10.942;2022-12-04T13:40:57;4.75;;;3.60;;
74369;SDS011;62805;44.644;10.942;2022-12-04T13:46:06;4.38;;;2.55;;
74369;SDS011;62805;44.644;10.942;2022-12-04T13:48:45;2.72;;;1.80;;
74369;SDS011;62805;44.644;10.942;2022-12-04T13:51:21;2.67;;;1.80;;
74369;SDS011;62805;44.644;10.942;2022-12-04T13:53:59;3.10;;;2.25;;
74369;SDS011;62805;44.644;10.942;2022-12-04T13:56:45;4.45;;;2.17;;
74369;SDS011;62805;44.644;10.942;2022-12-04T14:01:51;2.75;;;2.13;;
74369;SDS011;62805;44.644;10.942;2022-12-04T14:06:49;3.75;;;2.13;;
74369;SDS011;62805;44.644;10.942;2022-12-04T14:09:23;4.10;;;2.83;;
74369;SDS011;62805;44.644;10.942;2022-12-04T14:11:57;4.28;;;3.00;;
74369;SDS011;62805;44.644;10.942;2022-12-04T14:14:26;3.22;;;2.65;;
74369;SDS011;62805;44.644;10.942;2022-12-04T14:16:55;3.92;;;2.58;;
74369;SDS011;62805;44.644;10.942;2022-12-04T14:19:23;4.28;;;3.00;;
74369;SDS011;62805;44.644;10.942;2022-12-04T14:21:52;5.07;;;3.40;;
74369;SDS011;62805;44.644;10.942;2022-12-04T14:24:28;4.30;;;3.47;;
74369;SDS011;62805;44.644;10.942;2022-12-04T14:32:44;8.43;;;6.43;;
74369;SDS011;62805;44.644;10.942;2022-12-04T14:35:14;9.45;;;6.20;;
74369;SDS011;62805;44.644;10.942;2022-12-04T14:37:43;9.82;;;6.38;;
74369;SDS011;62805;44.644;10.942;2022-12-04T14:40:36;7.80;;;5.85;;
74369;SDS011;62805;44.644;10.942;2022-12-04T14:43:12;8.30;;;6.00;;
74369;SDS011;62805;44.644;10.942;2022-12-04T14:45:45;8.77;;;5.65;;
74369;SDS011;62805;44.644;10.942;2022-12-04T14:48:22;7.03;;;5.35;;
74369;SDS011;62805;44.644;10.942;2022-12-04T14:54:01;10.88;;;7.10;;
74369;SDS011;62805;44.644;10.942;2022-12-04T14:59:21;11.95;;;7.72;;
74369;SDS011;62805;44.644;10.942;2022-12-04T15:01:48;15.13;;;10.07;;
74369;SDS011;62805;44.644;10.942;2022-12-04T15:06:50;13.18;;;8.30;;
74369;SDS011;62805;44.644;10.942;2022-12-04T15:09:18;13.32;;;7.32;;
74369;SDS011;62805;44.644;10.942;2022-12-04T15:15:19;14.25;;;8.00;;
74369;SDS011;62805;44.644;10.942;2022-12-04T15:20:35;13.05;;;7.40;;
74369;SDS011;62805;44.644;10.942;2022-12-04T15:26:03;15.23;;;8.45;;
74369;SDS011;62805;44.644;10.942;2022-12-04T15:28:31;17.75;;;8.43;;
74369;SDS011;62805;44.644;10.942;2022-12-04T15:30:58;16.35;;;8.75;;
74369;SDS011;62805;44.644;10.942;2022-12-04T15:33:26;14.80;;;7.88;;
74369;SDS011;62805;44.644;10.942;2022-12-04T15:35:56;16.15;;;8.70;;
74369;SDS011;62805;44.644;10.942;2022-12-04T15:38:33;16.73;;;8.90;;
74369;SDS011;62805;44.644;10.942;2022-12-04T15:41:00;14.55;;;7.88;;
74369;SDS011;62805;44.644;10.942;2022-12-04T15:46:11;14.05;;;7.97;;
74369;SDS011;62805;44.644;10.942;2022-12-04T15:51:04;15.38;;;8.45;;
74369;SDS011;62805;44.644;10.942;2022-12-04T15:53:31;13.40;;;7.65;;
74369;SDS011;62805;44.644;10.942;2022-12-04T15:56:02;18.27;;;8.70;;
74369;SDS011;62805;44.644;10.942;2022-12-04T15:58:30;18.73;;;9.45;;
74369;SDS011;62805;44.644;10.942;2022-12-04T16:00:58;16.05;;;9.02;;
74369;SDS011;62805;44.644;10.942;2022-12-04T16:03:27;16.40;;;9.30;;
74369;SDS011;62805;44.644;10.942;2022-12-04T16:08:50;16.80;;;8.77;;
74369;SDS011;62805;44.644;10.942;2022-12-04T16:11:36;15.90;;;9.38;;
74369;SDS011;62805;44.644;10.942;2022-12-04T16:16:41;16.25;;;9.10;;
74369;SDS011;62805;44.644;10.942;2022-12-04T16:19:13;15.38;;;8.05;;
74369;SDS011;62805;44.644;10.942;2022-12-04T16:22:02;14.82;;;8.93;;
74369;SDS011;62805;44.644;10.942;2022-12-04T16:24:29;18.00;;;9.07;;
74369;SDS011;62805;44.644;10.942;2022-12-04T16:26:55;18.85;;;9.18;;
74369;SDS011;62805;44.644;10.942;2022-12-04T16:29:21;16.13;;;9.27;;
74369;SDS011;62805;44.644;10.942;2022-12-04T16:31:47;15.55;;;9.07;;
74369;SDS011;62805;44.644;10.942;2022-12-04T16:34:13;16.13;;;9.13;;
74369;SDS011;62805;44.644;10.942;2022-12-04T16:36:39;16.27;;;9.48;;
74369;SDS011;62805;44.644;10.942;2022-12-04T16:39:04;18.15;;;9.82;;
74369;SDS011;62805;44.644;10.942;2022-12-04T16:41:30;19.10;;;9.45;;
74369;SDS011;62805;44.644;10.942;2022-12-04T16:43:57;18.27;;;10.05;;
74369;SDS011;62805;44.644;10.942;2022-12-04T16:46:24;17.85;;;9.85;;
74369;SDS011;62805;44.644;10.942;2022-12-04T16:48:50;20.27;;;10.35;;
74369;SDS011;62805;44.644;10.942;2022-12-04T16:51:21;17.83;;;10.70;;
74369;SDS011;62805;44.644;10.942;2022-12-04T16:53:48;19.90;;;10.93;;
74369;SDS011;62805;44.644;10.942;2022-12-04T16:56:16;22.48;;;10.57;;
74369;SDS011;62805;44.644;10.942;2022-12-04T16:58:42;18.73;;;10.13;;
74369;SDS011;62805;44.644;10.942;2022-12-04T17:01:17;17.48;;;10.45;;
74369;SDS011;62805;44.644;10.942;2022-12-04T17:03:48;22.80;;;11.15;;
74369;SDS011;62805;44.644;10.942;2022-12-04T17:06:14;20.20;;;10.85;;
74369;SDS011;62805;44.644;10.942;2022-12-04T17:08:39;20.33;;;10.85;;
74369;SDS011;62805;44.644;10.942;2022-12-04T17:11:05;18.33;;;10.68;;
74369;SDS011;62805;44.644;10.942;2022-12-04T17:13:30;18.48;;;10.85;;
74369;SDS011;62805;44.644;10.942;2022-12-04T17:15:56;18.67;;;10.43;;
74369;SDS011;62805;44.644;10.942;2022-12-04T17:18:22;20.95;;;11.60;;
74369;SDS011;62805;44.644;10.942;2022-12-04T17:20:47;19.92;;;11.15;;
74369;SDS011;62805;44.644;10.942;2022-12-04T17:23:13;21.13;;;12.00;;
74369;SDS011;62805;44.644;10.942;2022-12-04T17:25:38;21.85;;;11.60;;
74369;SDS011;62805;44.644;10.942;2022-12-04T17:28:04;18.80;;;10.73;;
74369;SDS011;62805;44.644;10.942;2022-12-04T17:30:30;19.52;;;11.35;;
74369;SDS011;62805;44.644;10.942;2022-12-04T17:32:55;20.80;;;11.57;;
74369;SDS011;62805;44.644;10.942;2022-12-04T17:35:21;20.42;;;11.55;;